createdAt,value
2022-11-29T00:00:22.957Z,30.77
2022-11-29T00:03:10.504Z,34.78
2022-11-29T00:05:38.065Z,32.20
2022-11-29T00:08:08.188Z,31.63
2022-11-29T00:10:38.829Z,34.08
2022-11-29T00:13:05.967Z,33.60
2022-11-29T00:15:36.993Z,31.77
2022-11-29T00:18:07.660Z,29.65
2022-11-29T00:20:35.929Z,33.50
2022-11-29T00:23:04.207Z,35.05
2022-11-29T00:25:31.872Z,30.65
2022-11-29T00:28:02.418Z,33.45
2022-11-29T00:30:29.793Z,29.70
2022-11-29T00:32:57.135Z,30.25
2022-11-29T00:35:24.460Z,31.30
2022-11-29T00:37:51.888Z,32.38
2022-11-29T00:40:19.543Z,29.27
2022-11-29T00:42:47.204Z,29.10
2022-11-29T00:45:14.699Z,30.40
2022-11-29T00:47:44.397Z,30.88
2022-11-29T00:50:11.632Z,28.35
2022-11-29T00:52:38.779Z,30.92
2022-11-29T00:55:06.412Z,30.95
2022-11-29T00:57:33.548Z,28.83
2022-11-29T01:00:00.353Z,28.73
2022-11-29T01:02:27.689Z,28.73
2022-11-29T01:04:55.085Z,31.35
2022-11-29T01:07:22.568Z,28.00
2022-11-29T01:09:49.875Z,32.30
2022-11-29T01:12:17.371Z,27.83
2022-11-29T01:14:44.972Z,27.92
2022-11-29T01:17:12.642Z,29.27
2022-11-29T01:19:39.897Z,27.38
2022-11-29T01:22:07.463Z,27.45
2022-11-29T01:24:34.884Z,29.17
2022-11-29T01:27:02.488Z,33.20
2022-11-29T01:29:30.003Z,28.65
2022-11-29T01:31:57.604Z,30.83
2022-11-29T01:34:25.033Z,28.33
2022-11-29T01:36:52.591Z,31.33
2022-11-29T01:39:20.044Z,32.00
2022-11-29T01:41:47.593Z,29.08
2022-11-29T01:44:14.849Z,29.75
2022-11-29T01:46:46.957Z,28.95
2022-11-29T01:49:31.839Z,30.45
2022-11-29T01:52:12.196Z,31.90
2022-11-29T01:54:47.865Z,28.48
2022-11-29T01:57:19.294Z,30.58
2022-11-29T01:59:59.029Z,26.73
2022-11-29T02:02:41.576Z,27.58
2022-11-29T02:05:10.174Z,30.63
2022-11-29T02:07:38.398Z,32.42
2022-11-29T02:10:08.186Z,27.63
2022-11-29T02:13:07.373Z,33.03
2022-11-29T02:16:14.569Z,33.15
2022-11-29T02:19:31.074Z,29.52
2022-11-29T02:22:41.969Z,31.13
2022-11-29T02:25:42.848Z,25.23
2022-11-29T02:28:52.589Z,32.60
2022-11-29T02:36:00.222Z,32.72
2022-11-29T02:39:18.201Z,35.70
2022-11-29T02:42:04.216Z,33.90
2022-11-29T02:45:26.892Z,34.78
2022-11-29T02:48:12.552Z,29.60
2022-11-29T02:51:11.481Z,32.55
2022-11-29T02:54:07.183Z,29.90
2022-11-29T02:56:43.566Z,32.00
2022-11-29T03:00:07.037Z,31.52
2022-11-29T03:03:08.678Z,31.63
2022-11-29T03:06:12.021Z,35.17
2022-11-29T03:09:27.986Z,30.05
2022-11-29T03:12:41.908Z,32.55
2022-11-29T03:15:55.584Z,30.15
2022-11-29T03:19:13.330Z,30.77
2022-11-29T03:22:15.315Z,31.85
2022-11-29T03:25:13.047Z,33.33
2022-11-29T03:28:01.993Z,37.08
2022-11-29T03:30:38.155Z,32.47
2022-11-29T03:33:43.661Z,32.75
2022-11-29T03:36:44.603Z,36.03
2022-11-29T03:39:21.748Z,32.72
2022-11-29T03:41:59.136Z,33.35
2022-11-29T03:44:42.839Z,32.72
2022-11-29T03:47:22.393Z,32.65
2022-11-29T03:50:14.587Z,35.95
2022-11-29T03:53:33.354Z,33.78
2022-11-29T03:56:05.069Z,33.70
2022-11-29T03:59:09.440Z,34.78
2022-11-29T04:01:58.840Z,37.10
2022-11-29T04:05:00.126Z,40.97
2022-11-29T04:07:48.678Z,34.78
2022-11-29T04:11:04.015Z,36.10
2022-11-29T04:14:14.832Z,36.20
2022-11-29T04:16:53.692Z,39.85
2022-11-29T04:19:52.545Z,35.35
2022-11-29T04:23:04.833Z,32.13
2022-11-29T04:26:03.744Z,34.65
2022-11-29T04:29:08.985Z,36.22
2022-11-29T04:32:37.654Z,38.47
2022-11-29T04:36:09.794Z,36.42
2022-11-29T04:39:22.983Z,36.95
2022-11-29T04:42:37.313Z,39.40
2022-11-29T04:45:32.581Z,34.75
2022-11-29T04:48:38.256Z,36.08
2022-11-29T04:51:43.509Z,33.28
2022-11-29T04:54:21.393Z,34.85
2022-11-29T04:56:58.861Z,33.92
2022-11-29T04:59:43.804Z,32.58
2022-11-29T05:02:33.195Z,40.35
2022-11-29T05:05:47.535Z,38.95
2022-11-29T05:09:06.236Z,36.10
2022-11-29T05:11:38.690Z,38.33
2022-11-29T05:14:35.791Z,37.67
2022-11-29T05:17:21.252Z,34.40
2022-11-29T05:20:20.684Z,34.35
2022-11-29T05:23:26.329Z,35.25
2022-11-29T05:26:20.225Z,40.90
2022-11-29T05:29:01.356Z,36.50
2022-11-29T05:32:19.776Z,35.80
2022-11-29T05:35:03.200Z,37.28
2022-11-29T05:37:43.942Z,36.33
2022-11-29T05:41:21.116Z,35.83
2022-11-29T05:44:07.560Z,32.70
2022-11-29T05:46:58.831Z,35.70
2022-11-29T05:49:40.569Z,40.90
2022-11-29T05:52:31.275Z,40.22
2022-11-29T05:55:14.381Z,33.70
2022-11-29T05:58:02.220Z,38.72
2022-11-29T06:01:15.465Z,42.92
2022-11-29T06:04:24.889Z,38.70
2022-11-29T06:07:11.814Z,38.47
2022-11-29T06:09:51.387Z,35.25
2022-11-29T06:12:25.358Z,42.25
2022-11-29T06:15:30.682Z,43.15
2022-11-29T06:19:17.272Z,42.75
2022-11-29T06:22:24.614Z,44.97
2022-11-29T06:25:34.288Z,39.90
2022-11-29T06:28:35.164Z,42.88
2022-11-29T06:31:40.216Z,41.85
2022-11-29T06:34:18.230Z,39.83
2022-11-29T06:37:16.399Z,40.70
2022-11-29T06:39:47.584Z,41.75
2022-11-29T06:42:18.516Z,45.35
2022-11-29T06:44:48.077Z,45.50
2022-11-29T06:47:43.525Z,44.47
2022-11-29T06:50:53.483Z,44.35
2022-11-29T06:53:34.909Z,46.97
2022-11-29T06:56:08.715Z,46.75
2022-11-29T06:59:08.186Z,42.83
2022-11-29T07:02:21.363Z,44.50
2022-11-29T07:05:28.109Z,41.38
2022-11-29T07:08:02.250Z,48.35
2022-11-29T07:10:33.540Z,47.67
2022-11-29T07:13:01.234Z,48.90
2022-11-29T07:15:51.106Z,45.30
2022-11-29T07:18:57.165Z,44.97
2022-11-29T07:22:08.289Z,45.97
2022-11-29T07:25:20.458Z,43.92
2022-11-29T07:28:26.351Z,46.40
2022-11-29T07:31:19.626Z,47.40
2022-11-29T07:34:05.643Z,42.75
2022-11-29T07:37:00.992Z,49.20
2022-11-29T07:40:02.942Z,48.10
2022-11-29T07:43:11.870Z,45.47
2022-11-29T07:45:41.145Z,55.10
2022-11-29T07:48:12.496Z,47.00
2022-11-29T07:50:41.097Z,49.72
2022-11-29T07:53:17.154Z,46.60
2022-11-29T07:55:56.841Z,48.20
2022-11-29T07:58:25.691Z,58.05
2022-11-29T08:00:53.217Z,49.67
2022-11-29T08:04:15.598Z,50.33
2022-11-29T08:06:45.234Z,50.63
2022-11-29T08:09:13.733Z,47.83
2022-11-29T08:11:42.419Z,47.45
2022-11-29T08:14:10.289Z,47.35
2022-11-29T08:16:38.666Z,47.08
2022-11-29T08:19:06.436Z,51.63
2022-11-29T08:21:34.492Z,48.97
2022-11-29T08:24:01.802Z,48.67
2022-11-29T08:26:31.829Z,51.13
2022-11-29T08:29:25.587Z,53.85
2022-11-29T08:32:18.423Z,51.78
2022-11-29T08:34:45.737Z,47.80
2022-11-29T08:37:14.230Z,54.25
2022-11-29T08:39:41.720Z,46.72
2022-11-29T08:42:09.863Z,44.67
2022-11-29T08:45:09.768Z,46.38
2022-11-29T08:47:38.817Z,43.65
2022-11-29T08:50:14.793Z,50.45
2022-11-29T08:53:08.544Z,51.58
2022-11-29T08:55:42.953Z,50.08
2022-11-29T08:58:16.877Z,51.58
2022-11-29T09:00:47.111Z,46.63
2022-11-29T09:03:51.255Z,51.45
2022-11-29T09:06:18.559Z,52.65
2022-11-29T09:09:36.865Z,48.53
2022-11-29T09:12:14.429Z,55.28
2022-11-29T09:14:42.985Z,50.45
2022-11-29T09:17:10.813Z,50.83
2022-11-29T09:19:39.468Z,47.03
2022-11-29T09:22:07.733Z,53.08
2022-11-29T09:24:36.948Z,46.80
2022-11-29T09:27:06.630Z,46.35
2022-11-29T09:29:35.742Z,46.63
2022-11-29T09:32:04.035Z,46.83
2022-11-29T09:34:31.368Z,52.83
2022-11-29T09:36:59.133Z,46.55
2022-11-29T09:39:26.570Z,46.08
2022-11-29T09:42:50.959Z,49.17
2022-11-29T09:45:32.519Z,46.00
2022-11-29T09:48:33.617Z,47.95
2022-11-29T09:51:39.825Z,45.10
2022-11-29T09:55:05.600Z,47.35
2022-11-29T09:57:33.600Z,50.90
2022-11-29T10:00:07.784Z,42.63
2022-11-29T10:02:48.966Z,42.63
2022-11-29T10:05:24.771Z,44.20
2022-11-29T10:08:22.279Z,49.03
2022-11-29T10:11:02.458Z,43.20
2022-11-29T10:13:36.363Z,45.40
2022-11-29T10:16:19.767Z,48.93
2022-11-29T10:19:08.332Z,44.60
2022-11-29T10:21:43.692Z,39.20
2022-11-29T10:24:20.539Z,40.40
2022-11-29T10:26:47.516Z,42.83
2022-11-29T10:29:16.979Z,44.80
2022-11-29T10:31:49.689Z,41.47
2022-11-29T10:34:22.761Z,43.85
2022-11-29T10:37:01.494Z,41.55
2022-11-29T10:39:57.312Z,42.28
2022-11-29T10:45:27.959Z,42.63
2022-11-29T10:48:04.130Z,41.17
2022-11-29T10:50:40.397Z,37.78
2022-11-29T10:53:20.284Z,44.15
2022-11-29T10:56:05.785Z,44.45
2022-11-29T10:58:33.668Z,45.13
2022-11-29T11:01:08.553Z,40.60
2022-11-29T11:03:53.056Z,36.00
2022-11-29T11:06:44.257Z,31.33
2022-11-29T11:09:41.735Z,36.60
2022-11-29T11:12:16.084Z,36.80
2022-11-29T11:14:45.221Z,36.13
2022-11-29T11:17:32.782Z,39.00
2022-11-29T11:20:18.915Z,43.38
2022-11-29T11:22:59.885Z,40.40
2022-11-29T11:25:32.293Z,43.30
2022-11-29T11:28:21.524Z,43.08
2022-11-29T11:31:00.781Z,38.05
2022-11-29T11:33:37.033Z,35.67
2022-11-29T11:36:27.386Z,33.88
2022-11-29T11:39:12.104Z,36.47
2022-11-29T11:42:02.411Z,36.63
2022-11-29T11:44:52.622Z,36.35
2022-11-29T11:47:27.943Z,32.65
2022-11-29T11:50:41.180Z,38.05
2022-11-29T11:53:30.534Z,30.90
2022-11-29T11:56:03.016Z,37.30
2022-11-29T12:01:41.813Z,34.42
2022-11-29T12:04:47.564Z,37.03
2022-11-29T12:08:15.897Z,34.85
2022-11-29T12:10:55.505Z,39.22
2022-11-29T12:13:48.664Z,38.33
2022-11-29T12:16:38.915Z,34.72
2022-11-29T12:19:21.864Z,37.58
2022-11-29T12:21:59.689Z,36.10
2022-11-29T12:25:21.534Z,42.50
2022-11-29T12:27:51.938Z,36.83
2022-11-29T12:30:20.661Z,35.92
2022-11-29T12:32:59.977Z,36.17
2022-11-29T12:35:42.039Z,37.30
2022-11-29T12:38:32.188Z,38.50
2022-11-29T12:41:25.531Z,39.85
2022-11-29T12:44:20.074Z,32.03
2022-11-29T12:48:18.102Z,33.92
2022-11-29T12:51:14.474Z,35.35
2022-11-29T12:53:54.201Z,37.17
2022-11-29T12:56:50.916Z,37.13
2022-11-29T13:00:08.441Z,36.40
2022-11-29T13:03:59.419Z,40.78
2022-11-29T13:07:02.961Z,38.00
2022-11-29T13:10:18.108Z,40.72
2022-11-29T13:13:17.486Z,35.70
2022-11-29T13:16:07.588Z,43.08
2022-11-29T13:19:07.774Z,36.15
2022-11-29T13:21:58.194Z,47.65
2022-11-29T13:24:50.819Z,42.70
2022-11-29T13:27:35.365Z,37.08
2022-11-29T13:30:15.692Z,39.20
2022-11-29T13:33:16.588Z,36.78
2022-11-29T13:36:08.709Z,45.00
2022-11-29T13:39:12.086Z,40.58
2022-11-29T13:42:16.101Z,39.67
2022-11-29T13:44:47.351Z,36.67
2022-11-29T13:47:23.753Z,35.28
2022-11-29T13:50:03.629Z,44.65
2022-11-29T13:53:15.472Z,45.03
2022-11-29T13:56:26.565Z,38.90
2022-11-29T13:58:55.133Z,41.55
2022-11-29T14:01:27.233Z,38.40
2022-11-29T14:04:47.904Z,45.00
2022-11-29T14:07:19.834Z,39.55
2022-11-29T14:10:33.023Z,39.03
2022-11-29T14:13:01.933Z,40.17
2022-11-29T14:16:14.986Z,42.05
2022-11-29T14:18:44.722Z,38.65
2022-11-29T14:22:08.793Z,39.47
2022-11-29T14:24:52.210Z,39.58
2022-11-29T14:27:59.443Z,37.35
2022-11-29T14:31:02.227Z,38.28
2022-11-29T14:34:09.117Z,55.10
2022-11-29T14:37:23.765Z,40.85
2022-11-29T14:40:18.980Z,41.08
2022-11-29T14:44:10.445Z,38.58
2022-11-29T14:46:37.445Z,43.35
2022-11-29T14:49:05.570Z,45.40
2022-11-29T14:51:34.937Z,46.10
2022-11-29T14:54:13.173Z,48.70
2022-11-29T14:56:46.340Z,41.67
2022-11-29T14:59:53.214Z,42.87
2022-11-29T15:06:03.987Z,41.35
2022-11-29T15:08:44.085Z,45.47
2022-11-29T15:12:51.482Z,46.13
2022-11-29T15:15:42.089Z,40.28
2022-11-29T15:18:22.610Z,44.95
2022-11-29T15:21:16.852Z,47.25
2022-11-29T15:23:44.915Z,43.53
2022-11-29T15:26:21.228Z,45.67
2022-11-29T15:28:48.460Z,46.25
2022-11-29T15:31:24.536Z,51.22
2022-11-29T15:33:54.240Z,46.00
2022-11-29T15:36:25.846Z,44.00
2022-11-29T15:39:52.738Z,47.00
2022-11-29T15:42:19.591Z,43.53
2022-11-29T15:45:08.293Z,39.85
2022-11-29T15:50:33.499Z,43.25
2022-11-29T15:53:13.976Z,44.28
2022-11-29T15:55:45.005Z,42.03
2022-11-29T15:58:15.438Z,40.75
2022-11-29T16:00:49.802Z,54.30
2022-11-29T16:03:36.300Z,38.67
2022-11-29T16:06:29.962Z,45.95
2022-11-29T16:09:34.144Z,41.15
2022-11-29T16:12:03.178Z,42.00
2022-11-29T16:14:30.934Z,43.20
2022-11-29T16:17:11.935Z,40.00
2022-11-29T16:20:09.806Z,38.40
2022-11-29T16:22:43.620Z,37.20
2022-11-29T16:26:07.051Z,41.60
2022-11-29T16:29:20.405Z,45.83
2022-11-29T16:32:00.587Z,42.58
2022-11-29T16:34:36.107Z,45.65
2022-11-29T16:37:23.040Z,40.05
2022-11-29T16:40:23.794Z,41.42
2022-11-29T16:43:43.660Z,42.22
2022-11-29T16:46:22.586Z,44.17
2022-11-29T16:48:54.551Z,40.20
2022-11-29T16:51:47.708Z,45.65
2022-11-29T16:54:21.633Z,52.78
2022-11-29T16:57:43.662Z,39.30
2022-11-29T17:00:29.044Z,46.55
2022-11-29T17:02:56.635Z,43.25
2022-11-29T17:05:23.750Z,46.58
2022-11-29T17:08:14.030Z,39.85
2022-11-29T17:10:43.894Z,44.40
2022-11-29T17:13:11.933Z,47.97
2022-11-29T17:15:50.327Z,44.03
2022-11-29T17:18:46.891Z,50.03
2022-11-29T17:21:37.901Z,43.70
2022-11-29T17:24:17.647Z,46.67
2022-11-29T17:26:46.230Z,46.40
2022-11-29T17:29:20.693Z,51.33
2022-11-29T17:31:50.475Z,45.55
2022-11-29T17:34:18.092Z,45.63
2022-11-29T17:36:45.325Z,44.72
2022-11-29T17:39:12.751Z,43.50
2022-11-29T17:41:39.568Z,42.10
2022-11-29T17:44:06.587Z,44.08
2022-11-29T17:46:36.876Z,42.47
2022-11-29T17:49:12.093Z,46.08
2022-11-29T17:51:51.560Z,48.15
2022-11-29T17:54:23.355Z,47.70
2022-11-29T17:56:51.986Z,46.95
2022-11-29T17:59:32.267Z,52.60
2022-11-29T18:02:15.579Z,45.70
2022-11-29T18:05:13.801Z,46.17
2022-11-29T18:08:00.911Z,43.83
2022-11-29T18:10:31.995Z,45.63
2022-11-29T18:12:58.958Z,43.95
2022-11-29T18:16:11.278Z,44.00
2022-11-29T18:18:40.464Z,41.25
2022-11-29T18:21:12.318Z,49.15
2022-11-29T18:24:09.287Z,44.88
2022-11-29T18:26:48.623Z,44.10
2022-11-29T18:29:18.747Z,50.38
2022-11-29T18:32:28.074Z,46.70
2022-11-29T18:35:02.398Z,43.85
2022-11-29T18:38:05.049Z,45.22
2022-11-29T18:40:20.451Z,50.15
2022-11-29T18:42:49.459Z,46.50
2022-11-29T18:45:38.489Z,50.55
2022-11-29T18:48:06.906Z,46.42
2022-11-29T18:50:49.012Z,50.42
2022-11-29T18:53:36.645Z,45.95
2022-11-29T18:56:12.561Z,44.10
2022-11-29T18:58:40.428Z,44.30
2022-11-29T19:01:34.518Z,53.08
2022-11-29T19:04:15.476Z,55.92
2022-11-29T19:06:43.868Z,52.40
2022-11-29T19:09:57.391Z,39.92
2022-11-29T19:12:24.938Z,48.95
2022-11-29T19:15:03.898Z,51.75
2022-11-29T19:17:45.679Z,50.13
2022-11-29T19:20:28.544Z,46.25
2022-11-29T19:23:00.313Z,39.20
2022-11-29T19:25:28.991Z,40.20
2022-11-29T19:27:57.622Z,42.20
2022-11-29T19:30:28.590Z,45.67
2022-11-29T19:32:56.026Z,42.70
2022-11-29T19:35:22.923Z,42.13
2022-11-29T19:37:50.108Z,46.65
2022-11-29T19:40:17.397Z,46.95
2022-11-29T19:42:49.234Z,43.25
2022-11-29T19:45:19.433Z,41.10
2022-11-29T19:47:54.774Z,43.65
2022-11-29T19:50:52.348Z,41.63
2022-11-29T19:53:36.460Z,49.38
2022-11-29T19:57:03.191Z,45.53
2022-11-29T19:59:33.908Z,53.38
2022-11-29T20:02:06.374Z,48.38
2022-11-29T20:05:17.766Z,43.05
2022-11-29T20:07:44.899Z,43.75
2022-11-29T20:10:12.427Z,40.88
2022-11-29T20:13:29.776Z,40.50
2022-11-29T20:16:08.598Z,43.67
2022-11-29T20:18:39.420Z,43.22
2022-11-29T20:21:13.124Z,39.95
2022-11-29T20:23:45.243Z,38.55
2022-11-29T20:26:23.779Z,36.38
2022-11-29T20:28:51.328Z,40.67
2022-11-29T20:31:23.214Z,43.22
2022-11-29T20:33:58.395Z,43.10
2022-11-29T20:37:02.313Z,44.88
2022-11-29T20:39:32.333Z,54.53
2022-11-29T20:42:29.972Z,40.28
2022-11-29T20:45:06.545Z,38.97
2022-11-29T20:48:18.168Z,37.95
2022-11-29T20:51:02.375Z,37.85
2022-11-29T20:53:52.454Z,35.42
2022-11-29T20:56:19.341Z,34.33
2022-11-29T20:58:46.525Z,38.53
2022-11-29T21:01:13.615Z,40.92
2022-11-29T21:03:40.849Z,38.20
2022-11-29T21:06:08.002Z,36.15
2022-11-29T21:08:35.477Z,41.67
2022-11-29T21:11:26.418Z,40.30
2022-11-29T21:13:54.856Z,36.90
2022-11-29T21:16:31.708Z,35.95
2022-11-29T21:19:11.197Z,37.45
2022-11-29T21:22:04.672Z,32.15
2022-11-29T21:24:46.890Z,35.10
2022-11-29T21:27:38.754Z,33.80
2022-11-29T21:30:55.578Z,33.85
2022-11-29T21:33:52.065Z,39.42
2022-11-29T21:36:26.802Z,34.55
2022-11-29T21:38:55.417Z,34.95
2022-11-29T21:41:36.444Z,37.30
2022-11-29T21:44:07.749Z,35.20
2022-11-29T21:46:37.008Z,40.88
2022-11-29T21:49:06.041Z,35.95
2022-11-29T21:51:39.838Z,33.00
2022-11-29T21:54:06.851Z,37.75
2022-11-29T21:56:34.294Z,35.47
2022-11-29T21:59:01.265Z,36.30
2022-11-29T22:01:29.480Z,34.28
2022-11-29T22:03:56.888Z,33.75
2022-11-29T22:06:26.100Z,34.72
2022-11-29T22:09:04.409Z,39.05
2022-11-29T22:11:31.919Z,31.35
2022-11-29T22:14:13.924Z,37.80
2022-11-29T22:17:01.486Z,35.17
2022-11-29T22:19:38.272Z,44.35
2022-11-29T22:22:10.901Z,42.17
2022-11-29T22:24:38.426Z,38.15
2022-11-29T22:27:05.643Z,34.33
2022-11-29T22:29:32.601Z,40.08
2022-11-29T22:32:01.175Z,38.28
2022-11-29T22:34:28.534Z,34.88
2022-11-29T22:36:56.544Z,34.97
2022-11-29T22:39:24.214Z,34.80
2022-11-29T22:41:54.556Z,34.20
2022-11-29T22:44:30.207Z,36.03
2022-11-29T22:49:24.251Z,33.78
2022-11-29T22:51:52.430Z,36.80
2022-11-29T22:54:20.285Z,33.63
2022-11-29T22:56:47.843Z,35.05
2022-11-29T22:59:14.875Z,31.70
2022-11-29T23:01:43.103Z,36.58
2022-11-29T23:04:12.234Z,33.63
2022-11-29T23:06:48.529Z,36.50
2022-11-29T23:09:55.807Z,35.92
2022-11-29T23:12:22.983Z,34.45
2022-11-29T23:14:55.828Z,40.13
2022-11-29T23:17:27.785Z,36.63
2022-11-29T23:19:55.336Z,34.67
2022-11-29T23:22:23.049Z,34.25
2022-11-29T23:24:50.370Z,34.55
2022-11-29T23:27:18.134Z,33.28
2022-11-29T23:29:45.519Z,34.30
2022-11-29T23:32:15.817Z,30.02
2022-11-29T23:34:42.690Z,31.08
2022-11-29T23:37:09.841Z,33.05
2022-11-29T23:39:50.672Z,28.85
2022-11-29T23:42:17.923Z,27.20
2022-11-29T23:44:45.123Z,26.42
2022-11-29T23:47:12.466Z,30.00
2022-11-29T23:49:39.954Z,29.05
2022-11-29T23:52:07.178Z,27.73
2022-11-29T23:54:34.133Z,32.58
2022-11-29T23:57:01.276Z,33.08
2022-11-29T23:59:28.413Z,31.88
